createdAt,value
2019-02-27T00:02:02.771Z,100916.65
2019-02-27T00:07:07.101Z,100910.05
2019-02-27T00:12:11.378Z,100900.63
2019-02-27T00:17:18.056Z,100897.86
2019-02-27T00:22:21.698Z,100898.67
2019-02-27T00:27:25.997Z,100891.37
2019-02-27T00:32:30.353Z,100893.00
2019-02-27T00:37:34.636Z,100891.97
2019-02-27T00:42:39.014Z,100891.52
2019-02-27T00:47:43.295Z,100891.09
2019-02-27T00:52:50.893Z,100886.63
2019-02-27T00:57:54.492Z,100886.33
2019-02-27T01:02:59.263Z,100878.99
2019-02-27T01:08:03.598Z,100889.27
2019-02-27T01:13:08.027Z,100883.84
2019-02-27T01:18:12.363Z,100873.33
2019-02-27T01:23:16.593Z,100869.02
2019-02-27T01:28:20.770Z,100869.84
2019-02-27T01:33:25.032Z,100869.67
2019-02-27T01:38:29.275Z,100865.08
2019-02-27T01:43:33.567Z,100865.67
2019-02-27T01:48:42.595Z,100862.65
2019-02-27T01:53:43.637Z,100863.44
2019-02-27T01:58:47.948Z,100864.72
2019-02-27T02:03:52.177Z,100860.77
2019-02-27T02:09:21.942Z,100857.14
2019-02-27T02:14:44.774Z,100853.23
2019-02-27T02:20:19.538Z,100848.41
2019-02-27T02:25:51.206Z,100844.14
2019-02-27T02:31:10.779Z,100829.41
2019-02-27T02:36:29.914Z,100825.78
2019-02-27T02:41:58.358Z,100819.47
2019-02-27T02:47:21.068Z,100810.77
2019-02-27T02:52:46.339Z,100802.73
2019-02-27T02:58:02.925Z,100794.54
2019-02-27T03:03:22.394Z,100784.62
2019-02-27T03:08:41.128Z,100781.97
2019-02-27T03:14:08.397Z,100771.11
2019-02-27T03:19:41.455Z,100765.45
2019-02-27T03:24:49.261Z,100768.13
2019-02-27T03:30:06.185Z,100754.12
2019-02-27T03:35:27.527Z,100756.11
2019-02-27T03:40:56.197Z,100741.64
2019-02-27T03:46:18.154Z,100724.92
2019-02-27T03:51:32.401Z,100736.14
2019-02-27T03:57:01.912Z,100735.69
2019-02-27T04:02:33.272Z,100739.49
2019-02-27T04:07:52.765Z,100749.03
2019-02-27T04:12:56.907Z,100747.41
2019-02-27T04:17:59.010Z,100750.30
2019-02-27T04:23:03.071Z,100745.31
2019-02-27T04:28:07.334Z,100752.42
2019-02-27T04:33:11.833Z,100754.34
2019-02-27T04:38:16.040Z,100752.41
2019-02-27T04:43:20.326Z,100756.91
2019-02-27T04:48:27.022Z,100748.19
2019-02-27T04:53:31.816Z,100739.38
2019-02-27T04:58:36.812Z,100745.52
2019-02-27T05:03:41.031Z,100742.61
2019-02-27T05:08:45.261Z,100738.79
2019-02-27T05:13:54.067Z,100742.22
2019-02-27T05:18:55.562Z,100750.52
2019-02-27T05:23:59.817Z,100759.22
2019-02-27T05:29:04.237Z,100760.88
2019-02-27T05:34:12.661Z,100770.30
2019-02-27T05:39:14.926Z,100768.85
2019-02-27T05:44:22.149Z,100769.51
2019-02-27T05:49:27.381Z,100761.20
2019-02-27T05:54:32.280Z,100753.00
2019-02-27T05:59:37.291Z,100748.91
2019-02-27T06:04:41.421Z,100741.70
2019-02-27T06:09:45.691Z,100740.16
2019-02-27T06:14:49.887Z,100729.47
2019-02-27T06:19:53.987Z,100726.55
2019-02-27T06:24:58.112Z,100732.83
2019-02-27T06:30:02.534Z,100730.77
2019-02-27T06:35:07.367Z,100717.61
2019-02-27T06:40:13.386Z,100710.50
2019-02-27T06:45:17.665Z,100717.17
2019-02-27T06:50:25.149Z,100703.89
2019-02-27T06:55:28.730Z,100723.77
2019-02-27T07:00:35.930Z,100724.49
2019-02-27T07:05:38.739Z,100723.41
2019-02-27T07:10:42.972Z,100724.58
2019-02-27T07:15:48.158Z,100718.91
2019-02-27T07:20:55.734Z,100715.34
2019-02-27T07:25:59.146Z,100710.12
2019-02-27T07:31:03.422Z,100711.51
2019-02-27T07:36:07.731Z,100709.41
2019-02-27T07:41:11.956Z,100702.56
2019-02-27T07:46:16.225Z,100715.05
2019-02-27T07:51:20.780Z,100706.57
2019-02-27T07:56:26.659Z,100703.19
2019-02-27T08:01:30.826Z,100709.14
2019-02-27T08:06:37.816Z,100717.05
2019-02-27T08:11:41.057Z,100719.97
2019-02-27T08:16:45.217Z,100718.67
2019-02-27T08:21:49.615Z,100715.83
2019-02-27T08:26:53.877Z,100723.73
2019-02-27T08:32:00.779Z,100713.38
2019-02-27T08:37:03.828Z,100711.84
2019-02-27T08:42:08.030Z,100720.77
2019-02-27T08:47:12.357Z,100728.75
2019-02-27T08:52:16.694Z,100653.22
2019-02-27T08:57:20.908Z,100711.42
2019-02-27T09:02:29.223Z,100711.17
2019-02-27T09:07:36.466Z,100717.80
2019-02-27T09:12:41.201Z,100716.75
2019-02-27T09:17:45.484Z,100719.27
2019-02-27T09:22:49.851Z,100729.02
2019-02-27T09:27:54.041Z,100721.27
2019-02-27T09:32:58.107Z,100715.95
2019-02-27T09:38:02.337Z,100716.42
2019-02-27T09:43:06.772Z,100719.63
2019-02-27T09:48:11.053Z,100718.98
2019-02-27T09:53:15.336Z,100705.92
2019-02-27T09:58:19.473Z,100714.97
2019-02-27T10:03:23.849Z,100713.88
2019-02-27T10:08:28.143Z,100717.56
2019-02-27T10:13:32.200Z,100718.27
2019-02-27T10:18:36.384Z,100715.44
2019-02-27T10:23:40.618Z,100712.58
2019-02-27T10:28:46.270Z,100711.14
2019-02-27T10:33:50.687Z,100719.59
2019-02-27T10:38:54.985Z,100721.02
2019-02-27T10:43:59.279Z,100722.60
2019-02-27T10:49:03.614Z,100727.30
2019-02-27T10:54:07.945Z,100724.44
2019-02-27T10:59:12.067Z,100711.05
2019-02-27T11:04:16.297Z,100715.28
2019-02-27T11:09:24.806Z,100703.88
2019-02-27T11:14:31.653Z,100709.20
2019-02-27T11:19:35.058Z,100706.70
2019-02-27T11:24:41.060Z,100698.33
2019-02-27T11:29:45.231Z,100690.28
2019-02-27T11:34:49.368Z,100696.55
2019-02-27T11:39:53.589Z,100700.66
2019-02-27T11:44:57.700Z,100694.27
2019-02-27T11:50:01.947Z,100698.06
2019-02-27T11:55:07.701Z,100696.70
2019-02-27T12:00:14.582Z,100690.66
2019-02-27T12:05:18.936Z,100678.02
2019-02-27T12:10:24.915Z,100611.59
2019-02-27T12:15:29.407Z,100674.67
2019-02-27T12:20:33.579Z,100663.21
2019-02-27T12:25:37.819Z,100660.22
2019-02-27T12:30:43.879Z,100661.86
2019-02-27T12:35:48.050Z,100649.98
2019-02-27T12:40:52.238Z,100649.48
2019-02-27T12:46:00.908Z,100646.45
2019-02-27T12:51:03.652Z,100636.54
2019-02-27T12:56:08.716Z,100625.34
2019-02-27T13:01:16.145Z,100613.56
2019-02-27T13:06:18.710Z,100615.38
2019-02-27T13:11:22.845Z,100597.92
2019-02-27T13:16:27.033Z,100597.92
2019-02-27T13:21:31.301Z,100584.50
2019-02-27T13:26:35.531Z,100587.06
2019-02-27T13:31:39.804Z,100588.24
2019-02-27T13:36:43.809Z,100593.57
2019-02-27T13:41:48.008Z,100599.63
2019-02-27T13:46:56.638Z,100594.20
2019-02-27T13:51:58.829Z,100589.73
2019-02-27T13:57:03.200Z,100585.53
2019-02-27T14:02:07.442Z,100583.00
2019-02-27T14:07:11.781Z,100570.95
2019-02-27T14:12:16.250Z,100573.95
2019-02-27T14:17:20.494Z,100563.52
2019-02-27T14:22:24.724Z,100550.89
2019-02-27T14:27:29.318Z,100548.44
2019-02-27T14:32:33.595Z,100555.07
2019-02-27T14:37:37.724Z,100548.87
2019-02-27T14:42:41.959Z,100544.48
2019-02-27T14:47:47.364Z,100532.55
2019-02-27T14:52:54.209Z,100526.20
2019-02-27T14:57:58.878Z,100520.08
2019-02-27T15:03:03.196Z,100508.29
2019-02-27T15:08:07.449Z,100504.64
2019-02-27T15:13:12.010Z,100507.41
2019-02-27T15:18:16.280Z,100510.02
2019-02-27T15:23:20.514Z,100512.37
2019-02-27T15:28:25.077Z,100497.55
2019-02-27T15:33:29.877Z,100492.18
2019-02-27T15:38:34.017Z,100483.70
2019-02-27T15:43:38.365Z,100475.85
2019-02-27T15:48:43.482Z,100483.95
2019-02-27T15:53:50.023Z,100478.13
2019-02-27T15:58:53.919Z,100472.50
2019-02-27T16:03:58.979Z,100468.38
2019-02-27T16:09:03.158Z,100463.68
2019-02-27T16:14:10.221Z,100457.58
2019-02-27T16:19:13.497Z,100452.29
2019-02-27T16:24:17.938Z,100447.30
2019-02-27T16:29:22.819Z,100442.25
2019-02-27T16:34:29.639Z,100445.58
2019-02-27T16:39:35.046Z,100425.52
2019-02-27T16:44:39.765Z,100423.78
2019-02-27T16:49:44.145Z,100424.14
2019-02-27T16:54:50.651Z,100411.41
2019-02-27T16:59:54.823Z,100420.70
2019-02-27T17:04:59.037Z,100417.73
2019-02-27T17:10:03.281Z,100417.73
2019-02-27T17:15:07.799Z,100410.09
2019-02-27T17:20:14.161Z,100404.66
2019-02-27T17:25:21.159Z,100407.72
2019-02-27T17:30:27.668Z,100401.52
2019-02-27T17:35:34.509Z,100385.66
2019-02-27T17:40:39.029Z,100379.63
2019-02-27T17:45:44.346Z,100380.80
2019-02-27T17:50:49.259Z,100382.17
2019-02-27T17:55:53.589Z,100387.96
2019-02-27T18:00:57.909Z,100368.20
2019-02-27T18:06:04.257Z,100368.47
2019-02-27T18:11:08.478Z,100371.86
2019-02-27T18:16:13.018Z,100366.63
2019-02-27T18:21:17.239Z,100370.01
2019-02-27T18:26:22.220Z,100360.26
2019-02-27T18:31:27.414Z,100357.36
2019-02-27T18:36:31.878Z,100360.55
2019-02-27T18:41:36.080Z,100363.64
2019-02-27T18:46:40.657Z,100350.91
2019-02-27T18:51:46.891Z,100328.33
2019-02-27T18:56:51.359Z,100342.47
2019-02-27T19:01:55.904Z,100354.37
2019-02-27T19:07:00.338Z,100360.05
2019-02-27T19:12:05.038Z,100366.53
2019-02-27T19:17:09.317Z,100363.19
2019-02-27T19:22:13.629Z,100352.19
2019-02-27T19:27:18.242Z,100368.77
2019-02-27T19:32:24.209Z,100367.70
2019-02-27T19:37:28.698Z,100357.78
2019-02-27T19:42:33.120Z,100350.88
2019-02-27T19:47:37.413Z,100346.80
2019-02-27T19:52:42.859Z,100352.80
2019-02-27T19:57:49.129Z,100350.92
2019-02-27T20:02:57.514Z,100338.90
2019-02-27T20:08:02.507Z,100334.63
2019-02-27T20:13:07.107Z,100323.72
2019-02-27T20:18:11.539Z,100317.27
2019-02-27T20:23:16.998Z,100336.10
2019-02-27T20:28:21.318Z,100333.94
2019-02-27T20:33:25.810Z,100319.91
2019-02-27T20:38:30.397Z,100331.53
2019-02-27T20:43:34.741Z,100331.61
2019-02-27T20:48:39.765Z,100317.16
2019-02-27T20:53:45.089Z,100331.75
2019-02-27T20:58:52.011Z,100323.47
2019-02-27T21:04:01.417Z,100319.66
2019-02-27T21:09:01.677Z,100313.10
2019-02-27T21:14:06.061Z,100311.93
2019-02-27T21:19:10.317Z,100303.98
2019-02-27T21:24:14.889Z,100305.77
2019-02-27T21:29:19.210Z,100302.33
2019-02-27T21:34:23.518Z,100300.55
2019-02-27T21:39:28.462Z,100304.94
2019-02-27T21:44:32.877Z,100305.08
2019-02-27T21:49:37.218Z,100300.18
2019-02-27T21:54:41.678Z,100299.09
2019-02-27T21:59:45.857Z,100312.34
2019-02-27T22:04:50.097Z,100313.03
2019-02-27T22:09:54.318Z,100313.75
2019-02-27T22:15:00.154Z,100306.34
2019-02-27T22:20:05.838Z,100306.02
2019-02-27T22:25:10.821Z,100280.59
2019-02-27T22:30:16.338Z,100282.31
2019-02-27T22:35:20.751Z,100281.03
2019-02-27T22:40:25.037Z,100276.75
2019-02-27T22:45:29.476Z,100272.28
2019-02-27T22:50:33.917Z,100265.09
2019-02-27T22:55:38.338Z,100261.30
2019-02-27T23:00:56.345Z,100252.48
2019-02-27T23:06:01.137Z,100269.48
2019-02-27T23:11:05.479Z,100256.14
2019-02-27T23:16:09.923Z,100246.95
2019-02-27T23:21:14.436Z,100254.45
2019-02-27T23:26:20.084Z,100246.33
2019-02-27T23:31:25.010Z,100243.17
2019-02-27T23:36:29.197Z,100240.53
2019-02-27T23:41:33.558Z,100237.73
2019-02-27T23:46:37.731Z,100233.73
2019-02-27T23:51:41.968Z,100234.03
2019-02-27T23:56:46.909Z,100224.32
